sensor_id;sensor_type;location;lat;lon;timestamp;temperature;humidity
23562;DHT22;11959;49.418;8.728;2022-09-09T00:00:24;15.30;99.90
23562;DHT22;11959;49.418;8.728;2022-09-09T00:03:18;15.30;99.90
23562;DHT22;11959;49.418;8.728;2022-09-09T00:08:28;15.30;99.90
23562;DHT22;11959;49.418;8.728;2022-09-09T00:11:01;15.40;99.90
23562;DHT22;11959;49.418;8.728;2022-09-09T00:13:34;15.30;99.90
23562;DHT22;11959;49.418;8.728;2022-09-09T00:16:27;15.30;99.90
23562;DHT22;11959;49.418;8.728;2022-09-09T00:24:26;15.30;99.90
23562;DHT22;11959;49.418;8.728;2022-09-09T00:26:57;15.30;99.90
23562;DHT22;11959;49.418;8.728;2022-09-09T00:32:13;15.30;99.90
23562;DHT22;11959;49.418;8.728;2022-09-09T00:35:01;15.40;99.90
23562;DHT22;11959;49.418;8.728;2022-09-09T00:37:29;15.40;99.90
23562;DHT22;11959;49.418;8.728;2022-09-09T00:39:59;15.30;99.90
23562;DHT22;11959;49.418;8.728;2022-09-09T00:42:43;15.40;99.90
23562;DHT22;11959;49.418;8.728;2022-09-09T00:47:53;15.40;99.90
23562;DHT22;11959;49.418;8.728;2022-09-09T00:50:49;15.40;99.90
23562;DHT22;11959;49.418;8.728;2022-09-09T00:53:42;15.40;99.90
23562;DHT22;11959;49.418;8.728;2022-09-09T00:56:13;15.40;99.90
23562;DHT22;11959;49.418;8.728;2022-09-09T01:02:07;15.40;99.90
23562;DHT22;11959;49.418;8.728;2022-09-09T01:04:38;15.40;99.90
23562;DHT22;11959;49.418;8.728;2022-09-09T01:07:13;15.40;99.90
23562;DHT22;11959;49.418;8.728;2022-09-09T01:12:39;15.30;99.90
23562;DHT22;11959;49.418;8.728;2022-09-09T01:15:23;15.40;99.90
23562;DHT22;11959;49.418;8.728;2022-09-09T01:18:05;15.30;99.90
23562;DHT22;11959;49.418;8.728;2022-09-09T01:24:24;15.30;99.90
23562;DHT22;11959;49.418;8.728;2022-09-09T01:26:39;15.40;99.90
23562;DHT22;11959;49.418;8.728;2022-09-09T01:29:13;15.40;99.90
23562;DHT22;11959;49.418;8.728;2022-09-09T01:31:58;15.30;99.90
23562;DHT22;11959;49.418;8.728;2022-09-09T01:34:30;15.30;99.90
23562;DHT22;11959;49.418;8.728;2022-09-09T01:37:08;15.30;99.90
23562;DHT22;11959;49.418;8.728;2022-09-09T01:39:36;15.30;99.90
23562;DHT22;11959;49.418;8.728;2022-09-09T01:42:05;15.30;99.90
23562;DHT22;11959;49.418;8.728;2022-09-09T01:44:31;15.40;99.90
23562;DHT22;11959;49.418;8.728;2022-09-09T01:46:57;15.40;99.90
23562;DHT22;11959;49.418;8.728;2022-09-09T01:49:23;15.40;99.90
23562;DHT22;11959;49.418;8.728;2022-09-09T01:51:54;15.40;99.90
23562;DHT22;11959;49.418;8.728;2022-09-09T01:54:23;15.40;99.90
23562;DHT22;11959;49.418;8.728;2022-09-09T02:02:26;15.30;99.90
23562;DHT22;11959;49.418;8.728;2022-09-09T02:07:50;15.30;99.90
23562;DHT22;11959;49.418;8.728;2022-09-09T02:10:20;15.30;99.90
23562;DHT22;11959;49.418;8.728;2022-09-09T02:12:51;15.30;99.90
23562;DHT22;11959;49.418;8.728;2022-09-09T02:15:35;15.30;99.90
23562;DHT22;11959;49.418;8.728;2022-09-09T02:18:07;15.30;99.90
23562;DHT22;11959;49.418;8.728;2022-09-09T02:20:36;15.30;99.90
23562;DHT22;11959;49.418;8.728;2022-09-09T02:23:03;15.30;99.90
23562;DHT22;11959;49.418;8.728;2022-09-09T02:25:29;15.40;99.90
23562;DHT22;11959;49.418;8.728;2022-09-09T02:27:56;15.30;99.90
23562;DHT22;11959;49.418;8.728;2022-09-09T02:30:24;15.30;99.90
23562;DHT22;11959;49.418;8.728;2022-09-09T02:32:52;15.40;99.90
23562;DHT22;11959;49.418;8.728;2022-09-09T02:35:23;15.30;99.90
23562;DHT22;11959;49.418;8.728;2022-09-09T02:37:51;15.30;99.90
23562;DHT22;11959;49.418;8.728;2022-09-09T02:40:18;15.40;99.90
23562;DHT22;11959;49.418;8.728;2022-09-09T02:42:47;15.40;99.90
23562;DHT22;11959;49.418;8.728;2022-09-09T02:45:16;15.40;99.90
23562;DHT22;11959;49.418;8.728;2022-09-09T02:50:53;15.40;99.90
23562;DHT22;11959;49.418;8.728;2022-09-09T02:53:24;15.40;99.90
23562;DHT22;11959;49.418;8.728;2022-09-09T02:56:20;15.50;99.90
23562;DHT22;11959;49.418;8.728;2022-09-09T02:58:47;15.40;99.90
23562;DHT22;11959;49.418;8.728;2022-09-09T03:01:14;15.40;99.90
23562;DHT22;11959;49.418;8.728;2022-09-09T03:03:40;15.50;99.90
23562;DHT22;11959;49.418;8.728;2022-09-09T03:06:07;15.50;99.90
23562;DHT22;11959;49.418;8.728;2022-09-09T03:08:33;15.50;99.90
23562;DHT22;11959;49.418;8.728;2022-09-09T03:10:59;15.50;99.90
23562;DHT22;11959;49.418;8.728;2022-09-09T03:13:27;15.40;99.90
23562;DHT22;11959;49.418;8.728;2022-09-09T03:15:52;15.40;99.90
23562;DHT22;11959;49.418;8.728;2022-09-09T03:18:18;15.40;99.90
23562;DHT22;11959;49.418;8.728;2022-09-09T03:20:44;15.40;99.90
23562;DHT22;11959;49.418;8.728;2022-09-09T03:23:11;15.40;99.90
23562;DHT22;11959;49.418;8.728;2022-09-09T03:25:39;15.40;99.90
23562;DHT22;11959;49.418;8.728;2022-09-09T03:28:04;15.40;99.90
23562;DHT22;11959;49.418;8.728;2022-09-09T03:30:30;15.40;99.90
23562;DHT22;11959;49.418;8.728;2022-09-09T03:32:56;15.40;99.90
23562;DHT22;11959;49.418;8.728;2022-09-09T03:35:22;15.40;99.90
23562;DHT22;11959;49.418;8.728;2022-09-09T03:37:48;15.40;99.90
23562;DHT22;11959;49.418;8.728;2022-09-09T03:40:14;15.30;99.90
23562;DHT22;11959;49.418;8.728;2022-09-09T03:42:40;15.30;99.90
23562;DHT22;11959;49.418;8.728;2022-09-09T03:45:07;15.30;99.90
23562;DHT22;11959;49.418;8.728;2022-09-09T03:47:34;15.30;99.90
23562;DHT22;11959;49.418;8.728;2022-09-09T03:50:00;15.30;99.90
23562;DHT22;11959;49.418;8.728;2022-09-09T03:52:26;15.30;99.90
23562;DHT22;11959;49.418;8.728;2022-09-09T03:54:53;15.20;99.90
23562;DHT22;11959;49.418;8.728;2022-09-09T03:57:19;15.20;99.90
23562;DHT22;11959;49.418;8.728;2022-09-09T03:59:47;15.20;99.90
23562;DHT22;11959;49.418;8.728;2022-09-09T04:02:12;15.20;99.90
23562;DHT22;11959;49.418;8.728;2022-09-09T04:04:38;15.10;99.90
23562;DHT22;11959;49.418;8.728;2022-09-09T04:07:04;15.10;99.90
23562;DHT22;11959;49.418;8.728;2022-09-09T04:09:32;15.20;99.90
23562;DHT22;11959;49.418;8.728;2022-09-09T04:11:58;15.20;99.90
23562;DHT22;11959;49.418;8.728;2022-09-09T04:14:23;15.10;99.90
23562;DHT22;11959;49.418;8.728;2022-09-09T04:16:54;15.20;99.90
23562;DHT22;11959;49.418;8.728;2022-09-09T04:19:20;15.20;99.90
23562;DHT22;11959;49.418;8.728;2022-09-09T04:21:46;15.20;99.90
23562;DHT22;11959;49.418;8.728;2022-09-09T04:24:14;15.20;99.90
23562;DHT22;11959;49.418;8.728;2022-09-09T04:26:41;15.20;99.90
23562;DHT22;11959;49.418;8.728;2022-09-09T04:29:07;15.20;99.90
23562;DHT22;11959;49.418;8.728;2022-09-09T04:31:33;15.20;99.90
23562;DHT22;11959;49.418;8.728;2022-09-09T04:33:59;15.20;99.90
23562;DHT22;11959;49.418;8.728;2022-09-09T04:36:31;15.20;99.90
23562;DHT22;11959;49.418;8.728;2022-09-09T04:38:57;15.20;99.90
23562;DHT22;11959;49.418;8.728;2022-09-09T04:41:23;15.20;99.90
23562;DHT22;11959;49.418;8.728;2022-09-09T04:43:49;15.20;99.90
23562;DHT22;11959;49.418;8.728;2022-09-09T04:46:15;15.20;99.90
23562;DHT22;11959;49.418;8.728;2022-09-09T04:48:42;15.20;99.90
23562;DHT22;11959;49.418;8.728;2022-09-09T04:51:11;15.30;99.90
23562;DHT22;11959;49.418;8.728;2022-09-09T04:53:37;15.30;99.90
23562;DHT22;11959;49.418;8.728;2022-09-09T04:56:08;15.30;99.90
23562;DHT22;11959;49.418;8.728;2022-09-09T04:58:35;15.30;99.90
23562;DHT22;11959;49.418;8.728;2022-09-09T05:03:36;15.40;99.90
23562;DHT22;11959;49.418;8.728;2022-09-09T05:06:14;15.40;99.90
23562;DHT22;11959;49.418;8.728;2022-09-09T05:08:42;15.40;99.90
23562;DHT22;11959;49.418;8.728;2022-09-09T05:11:21;15.40;99.90
23562;DHT22;11959;49.418;8.728;2022-09-09T05:13:48;15.40;99.90
23562;DHT22;11959;49.418;8.728;2022-09-09T05:16:15;15.50;99.90
23562;DHT22;11959;49.418;8.728;2022-09-09T05:18:41;15.50;99.90
23562;DHT22;11959;49.418;8.728;2022-09-09T05:21:12;15.50;99.90
23562;DHT22;11959;49.418;8.728;2022-09-09T05:23:38;15.60;99.90
23562;DHT22;11959;49.418;8.728;2022-09-09T05:26:05;15.60;99.90
23562;DHT22;11959;49.418;8.728;2022-09-09T05:28:34;15.60;99.90
23562;DHT22;11959;49.418;8.728;2022-09-09T05:31:06;15.60;99.90
23562;DHT22;11959;49.418;8.728;2022-09-09T05:33:38;15.60;99.90
23562;DHT22;11959;49.418;8.728;2022-09-09T05:36:07;15.80;99.90
23562;DHT22;11959;49.418;8.728;2022-09-09T05:38:34;15.80;99.90
23562;DHT22;11959;49.418;8.728;2022-09-09T05:41:01;15.80;99.90
23562;DHT22;11959;49.418;8.728;2022-09-09T05:43:28;15.80;99.90
23562;DHT22;11959;49.418;8.728;2022-09-09T05:46:08;15.90;99.90
23562;DHT22;11959;49.418;8.728;2022-09-09T05:48:36;16.00;99.90
23562;DHT22;11959;49.418;8.728;2022-09-09T05:51:03;16.00;99.90
23562;DHT22;11959;49.418;8.728;2022-09-09T05:53:30;16.10;99.90
23562;DHT22;11959;49.418;8.728;2022-09-09T05:56:21;16.10;99.90
23562;DHT22;11959;49.418;8.728;2022-09-09T05:58:48;16.20;99.90
23562;DHT22;11959;49.418;8.728;2022-09-09T06:01:17;16.20;99.90
23562;DHT22;11959;49.418;8.728;2022-09-09T06:03:44;16.30;99.90
23562;DHT22;11959;49.418;8.728;2022-09-09T06:06:15;16.40;99.90
23562;DHT22;11959;49.418;8.728;2022-09-09T06:08:43;16.40;99.90
23562;DHT22;11959;49.418;8.728;2022-09-09T06:11:11;16.40;99.90
23562;DHT22;11959;49.418;8.728;2022-09-09T06:13:38;16.50;99.90
23562;DHT22;11959;49.418;8.728;2022-09-09T06:16:08;16.50;99.90
23562;DHT22;11959;49.418;8.728;2022-09-09T06:18:34;16.60;99.90
23562;DHT22;11959;49.418;8.728;2022-09-09T06:21:02;16.60;99.90
23562;DHT22;11959;49.418;8.728;2022-09-09T06:23:30;16.70;99.90
23562;DHT22;11959;49.418;8.728;2022-09-09T06:26:07;16.80;99.90
23562;DHT22;11959;49.418;8.728;2022-09-09T06:28:35;16.80;99.90
23562;DHT22;11959;49.418;8.728;2022-09-09T06:31:03;16.80;99.90
23562;DHT22;11959;49.418;8.728;2022-09-09T06:33:35;16.90;99.90
23562;DHT22;11959;49.418;8.728;2022-09-09T06:36:02;16.90;99.90
23562;DHT22;11959;49.418;8.728;2022-09-09T06:38:29;17.00;99.90
23562;DHT22;11959;49.418;8.728;2022-09-09T06:40:55;17.10;99.90
23562;DHT22;11959;49.418;8.728;2022-09-09T06:43:22;17.10;99.90
23562;DHT22;11959;49.418;8.728;2022-09-09T06:45:59;17.20;99.90
23562;DHT22;11959;49.418;8.728;2022-09-09T06:48:27;17.20;99.90
23562;DHT22;11959;49.418;8.728;2022-09-09T06:51:06;17.20;99.90
23562;DHT22;11959;49.418;8.728;2022-09-09T06:53:33;17.30;99.90
23562;DHT22;11959;49.418;8.728;2022-09-09T06:58:42;17.40;99.90
23562;DHT22;11959;49.418;8.728;2022-09-09T07:01:10;17.40;99.90
23562;DHT22;11959;49.418;8.728;2022-09-09T07:03:38;17.40;99.90
23562;DHT22;11959;49.418;8.728;2022-09-09T07:06:04;17.50;99.90
23562;DHT22;11959;49.418;8.728;2022-09-09T07:08:30;17.60;99.90
23562;DHT22;11959;49.418;8.728;2022-09-09T07:11:07;17.60;99.90
23562;DHT22;11959;49.418;8.728;2022-09-09T07:13:34;17.60;99.90
23562;DHT22;11959;49.418;8.728;2022-09-09T07:16:08;17.70;99.90
23562;DHT22;11959;49.418;8.728;2022-09-09T07:18:34;17.70;99.90
23562;DHT22;11959;49.418;8.728;2022-09-09T07:21:01;17.80;99.90
23562;DHT22;11959;49.418;8.728;2022-09-09T07:23:27;17.80;99.90
23562;DHT22;11959;49.418;8.728;2022-09-09T07:25:53;17.90;99.90
23562;DHT22;11959;49.418;8.728;2022-09-09T07:28:20;17.90;99.90
23562;DHT22;11959;49.418;8.728;2022-09-09T07:30:56;17.90;99.90
23562;DHT22;11959;49.418;8.728;2022-09-09T07:33:23;17.90;99.90
23562;DHT22;11959;49.418;8.728;2022-09-09T07:35:49;18.00;99.90
23562;DHT22;11959;49.418;8.728;2022-09-09T07:38:15;18.00;99.90
23562;DHT22;11959;49.418;8.728;2022-09-09T07:40:41;18.10;99.90
23562;DHT22;11959;49.418;8.728;2022-09-09T07:43:07;18.20;99.90
23562;DHT22;11959;49.418;8.728;2022-09-09T07:45:34;18.40;99.90
23562;DHT22;11959;49.418;8.728;2022-09-09T07:48:01;18.50;99.90
23562;DHT22;11959;49.418;8.728;2022-09-09T07:50:27;18.60;99.90
23562;DHT22;11959;49.418;8.728;2022-09-09T07:52:52;18.70;99.90
23562;DHT22;11959;49.418;8.728;2022-09-09T07:55:19;18.70;99.90
23562;DHT22;11959;49.418;8.728;2022-09-09T07:57:45;18.80;99.90
23562;DHT22;11959;49.418;8.728;2022-09-09T08:00:12;18.80;99.90
23562;DHT22;11959;49.418;8.728;2022-09-09T08:02:38;18.90;99.90
23562;DHT22;11959;49.418;8.728;2022-09-09T08:05:04;18.90;99.90
23562;DHT22;11959;49.418;8.728;2022-09-09T08:07:31;19.00;99.90
23562;DHT22;11959;49.418;8.728;2022-09-09T08:09:57;19.10;99.90
23562;DHT22;11959;49.418;8.728;2022-09-09T08:12:22;19.00;99.90
23562;DHT22;11959;49.418;8.728;2022-09-09T08:14:48;19.10;99.90
23562;DHT22;11959;49.418;8.728;2022-09-09T08:17:14;19.20;99.90
23562;DHT22;11959;49.418;8.728;2022-09-09T08:19:40;19.20;99.90
23562;DHT22;11959;49.418;8.728;2022-09-09T08:22:06;19.30;99.90
23562;DHT22;11959;49.418;8.728;2022-09-09T08:24:33;19.30;99.90
23562;DHT22;11959;49.418;8.728;2022-09-09T08:26:58;19.30;99.90
23562;DHT22;11959;49.418;8.728;2022-09-09T08:29:25;19.40;99.90
23562;DHT22;11959;49.418;8.728;2022-09-09T08:31:52;19.50;99.90
23562;DHT22;11959;49.418;8.728;2022-09-09T08:34:20;19.50;99.90
23562;DHT22;11959;49.418;8.728;2022-09-09T08:36:47;19.60;99.90
23562;DHT22;11959;49.418;8.728;2022-09-09T08:39:15;19.60;99.90
23562;DHT22;11959;49.418;8.728;2022-09-09T08:52:45;19.60;99.90
23562;DHT22;11959;49.418;8.728;2022-09-09T08:55:37;19.50;99.90
23562;DHT22;11959;49.418;8.728;2022-09-09T09:01:09;19.40;99.90
23562;DHT22;11959;49.418;8.728;2022-09-09T09:03:57;19.40;99.90
23562;DHT22;11959;49.418;8.728;2022-09-09T09:09:08;19.30;99.90
23562;DHT22;11959;49.418;8.728;2022-09-09T09:11:52;19.20;99.90
23562;DHT22;11959;49.418;8.728;2022-09-09T09:14:22;19.30;99.90
23562;DHT22;11959;49.418;8.728;2022-09-09T09:19:27;19.50;99.90
23562;DHT22;11959;49.418;8.728;2022-09-09T09:22:02;19.60;99.90
23562;DHT22;11959;49.418;8.728;2022-09-09T09:24:41;19.70;99.90
23562;DHT22;11959;49.418;8.728;2022-09-09T09:27:18;19.70;99.90
23562;DHT22;11959;49.418;8.728;2022-09-09T09:29:48;19.70;99.90
23562;DHT22;11959;49.418;8.728;2022-09-09T09:32:18;19.80;99.90
23562;DHT22;11959;49.418;8.728;2022-09-09T09:34:53;19.80;99.90
23562;DHT22;11959;49.418;8.728;2022-09-09T09:37:41;19.80;99.90
23562;DHT22;11959;49.418;8.728;2022-09-09T09:40:20;19.80;99.90
23562;DHT22;11959;49.418;8.728;2022-09-09T09:43:03;19.80;99.90
23562;DHT22;11959;49.418;8.728;2022-09-09T09:45:43;19.90;99.90
23562;DHT22;11959;49.418;8.728;2022-09-09T09:48:13;20.00;99.90
23562;DHT22;11959;49.418;8.728;2022-09-09T09:50:54;20.10;99.90
23562;DHT22;11959;49.418;8.728;2022-09-09T09:53:31;20.20;99.90
23562;DHT22;11959;49.418;8.728;2022-09-09T09:56:00;20.20;99.90
23562;DHT22;11959;49.418;8.728;2022-09-09T09:58:29;20.30;99.90
23562;DHT22;11959;49.418;8.728;2022-09-09T10:00:57;20.40;99.90
23562;DHT22;11959;49.418;8.728;2022-09-09T10:03:32;20.50;99.90
23562;DHT22;11959;49.418;8.728;2022-09-09T10:06:03;20.50;99.90
23562;DHT22;11959;49.418;8.728;2022-09-09T10:08:29;20.40;99.90
23562;DHT22;11959;49.418;8.728;2022-09-09T10:17:08;20.40;99.90
23562;DHT22;11959;49.418;8.728;2022-09-09T10:19:33;20.40;99.90
23562;DHT22;11959;49.418;8.728;2022-09-09T10:33:43;20.40;99.90
23562;DHT22;11959;49.418;8.728;2022-09-09T10:36:19;20.60;99.90
23562;DHT22;11959;49.418;8.728;2022-09-09T10:38:47;20.50;99.90
23562;DHT22;11959;49.418;8.728;2022-09-09T10:41:41;20.50;99.90
23562;DHT22;11959;49.418;8.728;2022-09-09T10:49:17;20.30;99.90
23562;DHT22;11959;49.418;8.728;2022-09-09T10:57:33;20.80;99.90
23562;DHT22;11959;49.418;8.728;2022-09-09T11:00:10;20.80;99.90
23562;DHT22;11959;49.418;8.728;2022-09-09T11:02:40;20.90;99.90
23562;DHT22;11959;49.418;8.728;2022-09-09T11:05:16;21.00;99.90
23562;DHT22;11959;49.418;8.728;2022-09-09T11:08:01;21.10;99.90
23562;DHT22;11959;49.418;8.728;2022-09-09T11:11:02;21.20;99.90
23562;DHT22;11959;49.418;8.728;2022-09-09T11:14:35;21.30;99.90
23562;DHT22;11959;49.418;8.728;2022-09-09T11:16:47;21.50;99.90
23562;DHT22;11959;49.418;8.728;2022-09-09T11:19:47;21.60;99.90
23562;DHT22;11959;49.418;8.728;2022-09-09T11:22:34;21.70;99.90
23562;DHT22;11959;49.418;8.728;2022-09-09T11:25:16;21.70;99.90
23562;DHT22;11959;49.418;8.728;2022-09-09T11:33:38;21.50;99.90
23562;DHT22;11959;49.418;8.728;2022-09-09T11:38:45;21.60;99.90
23562;DHT22;11959;49.418;8.728;2022-09-09T11:41:16;21.60;99.90
23562;DHT22;11959;49.418;8.728;2022-09-09T11:43:45;21.60;99.90
23562;DHT22;11959;49.418;8.728;2022-09-09T11:46:13;21.60;99.90
23562;DHT22;11959;49.418;8.728;2022-09-09T11:48:45;21.70;99.90
23562;DHT22;11959;49.418;8.728;2022-09-09T11:51:12;21.80;99.90
23562;DHT22;11959;49.418;8.728;2022-09-09T11:56:45;21.90;99.90
23562;DHT22;11959;49.418;8.728;2022-09-09T11:59:26;21.90;99.90
23562;DHT22;11959;49.418;8.728;2022-09-09T12:07:03;21.70;99.90
23562;DHT22;11959;49.418;8.728;2022-09-09T12:09:49;21.70;99.90
23562;DHT22;11959;49.418;8.728;2022-09-09T12:12:26;21.90;99.90
23562;DHT22;11959;49.418;8.728;2022-09-09T12:17:26;22.00;99.90
23562;DHT22;11959;49.418;8.728;2022-09-09T12:20:30;22.00;99.90
23562;DHT22;11959;49.418;8.728;2022-09-09T12:23:16;21.80;99.90
23562;DHT22;11959;49.418;8.728;2022-09-09T12:33:44;22.10;99.90
23562;DHT22;11959;49.418;8.728;2022-09-09T12:36:19;22.00;99.90
23562;DHT22;11959;49.418;8.728;2022-09-09T12:38:46;22.00;99.90
23562;DHT22;11959;49.418;8.728;2022-09-09T12:41:26;22.00;99.90
23562;DHT22;11959;49.418;8.728;2022-09-09T12:44:08;22.00;99.90
23562;DHT22;11959;49.418;8.728;2022-09-09T12:46:42;22.20;99.90
23562;DHT22;11959;49.418;8.728;2022-09-09T12:51:54;22.30;99.90
23562;DHT22;11959;49.418;8.728;2022-09-09T12:54:22;22.30;99.90
23562;DHT22;11959;49.418;8.728;2022-09-09T12:56:49;22.20;99.90
23562;DHT22;11959;49.418;8.728;2022-09-09T12:59:36;22.10;99.90
23562;DHT22;11959;49.418;8.728;2022-09-09T13:02:11;22.00;99.90
23562;DHT22;11959;49.418;8.728;2022-09-09T13:04:37;22.00;99.90
23562;DHT22;11959;49.418;8.728;2022-09-09T13:07:07;22.10;99.90
23562;DHT22;11959;49.418;8.728;2022-09-09T13:09:35;22.00;99.90
23562;DHT22;11959;49.418;8.728;2022-09-09T13:12:01;22.00;99.90
23562;DHT22;11959;49.418;8.728;2022-09-09T13:14:36;22.00;99.90
23562;DHT22;11959;49.418;8.728;2022-09-09T13:17:06;22.00;99.90
23562;DHT22;11959;49.418;8.728;2022-09-09T13:19:44;22.00;99.90
23562;DHT22;11959;49.418;8.728;2022-09-09T13:22:40;21.80;99.90
23562;DHT22;11959;49.418;8.728;2022-09-09T13:25:17;21.60;99.90
23562;DHT22;11959;49.418;8.728;2022-09-09T13:35:47;21.20;99.90
23562;DHT22;11959;49.418;8.728;2022-09-09T13:38:15;21.10;99.90
23562;DHT22;11959;49.418;8.728;2022-09-09T13:40:52;20.90;99.90
23562;DHT22;11959;49.418;8.728;2022-09-09T13:43:22;20.70;99.90
23562;DHT22;11959;49.418;8.728;2022-09-09T13:46:00;20.40;99.90
23562;DHT22;11959;49.418;8.728;2022-09-09T13:48:26;20.00;99.90
23562;DHT22;11959;49.418;8.728;2022-09-09T13:51:03;19.90;99.90
23562;DHT22;11959;49.418;8.728;2022-09-09T13:53:32;19.70;99.90
23562;DHT22;11959;49.418;8.728;2022-09-09T13:55:59;19.50;99.90
23562;DHT22;11959;49.418;8.728;2022-09-09T13:58:25;19.30;99.90
23562;DHT22;11959;49.418;8.728;2022-09-09T14:00:52;19.20;99.90
23562;DHT22;11959;49.418;8.728;2022-09-09T14:03:18;19.20;99.90
23562;DHT22;11959;49.418;8.728;2022-09-09T14:05:45;19.10;99.90
23562;DHT22;11959;49.418;8.728;2022-09-09T14:08:19;19.10;99.90
23562;DHT22;11959;49.418;8.728;2022-09-09T14:10:46;19.10;99.90
23562;DHT22;11959;49.418;8.728;2022-09-09T14:13:12;19.20;99.90
23562;DHT22;11959;49.418;8.728;2022-09-09T14:15:38;19.20;99.90
23562;DHT22;11959;49.418;8.728;2022-09-09T14:18:04;19.30;99.90
23562;DHT22;11959;49.418;8.728;2022-09-09T14:20:30;19.30;99.90
23562;DHT22;11959;49.418;8.728;2022-09-09T14:22:55;19.40;99.90
23562;DHT22;11959;49.418;8.728;2022-09-09T14:25:23;19.50;99.90
23562;DHT22;11959;49.418;8.728;2022-09-09T14:27:48;19.50;99.90
23562;DHT22;11959;49.418;8.728;2022-09-09T14:30:16;19.60;99.90
23562;DHT22;11959;49.418;8.728;2022-09-09T14:32:42;19.70;99.90
23562;DHT22;11959;49.418;8.728;2022-09-09T14:35:08;19.80;99.90
23562;DHT22;11959;49.418;8.728;2022-09-09T14:37:34;19.80;99.90
23562;DHT22;11959;49.418;8.728;2022-09-09T14:40:00;19.80;99.90
23562;DHT22;11959;49.418;8.728;2022-09-09T14:42:25;19.80;99.90
23562;DHT22;11959;49.418;8.728;2022-09-09T14:44:52;19.80;99.90
23562;DHT22;11959;49.418;8.728;2022-09-09T14:47:18;19.80;99.90
23562;DHT22;11959;49.418;8.728;2022-09-09T14:49:43;19.90;99.90
23562;DHT22;11959;49.418;8.728;2022-09-09T14:52:09;19.90;99.90
23562;DHT22;11959;49.418;8.728;2022-09-09T14:54:35;19.80;99.90
23562;DHT22;11959;49.418;8.728;2022-09-09T14:57:01;19.80;99.90
23562;DHT22;11959;49.418;8.728;2022-09-09T14:59:27;19.90;99.90
23562;DHT22;11959;49.418;8.728;2022-09-09T15:01:53;19.80;99.90
23562;DHT22;11959;49.418;8.728;2022-09-09T15:04:18;19.70;99.90
23562;DHT22;11959;49.418;8.728;2022-09-09T15:06:44;19.60;99.90
23562;DHT22;11959;49.418;8.728;2022-09-09T15:09:14;19.60;99.90
23562;DHT22;11959;49.418;8.728;2022-09-09T15:11:40;19.60;99.90
23562;DHT22;11959;49.418;8.728;2022-09-09T15:14:07;19.40;99.90
23562;DHT22;11959;49.418;8.728;2022-09-09T15:16:33;19.40;99.90
23562;DHT22;11959;49.418;8.728;2022-09-09T15:19:01;19.40;99.90
23562;DHT22;11959;49.418;8.728;2022-09-09T15:21:33;19.30;99.90
23562;DHT22;11959;49.418;8.728;2022-09-09T15:23:58;19.30;99.90
23562;DHT22;11959;49.418;8.728;2022-09-09T15:26:25;19.30;99.90
23562;DHT22;11959;49.418;8.728;2022-09-09T15:28:51;19.20;99.90
23562;DHT22;11959;49.418;8.728;2022-09-09T15:33:51;19.20;99.90
23562;DHT22;11959;49.418;8.728;2022-09-09T15:36:19;19.20;99.90
23562;DHT22;11959;49.418;8.728;2022-09-09T15:38:45;19.20;99.90
23562;DHT22;11959;49.418;8.728;2022-09-09T15:41:12;19.20;99.90
23562;DHT22;11959;49.418;8.728;2022-09-09T15:43:38;19.30;99.90
23562;DHT22;11959;49.418;8.728;2022-09-09T15:46:35;18.80;99.90
23562;DHT22;11959;49.418;8.728;2022-09-09T15:49:15;18.10;99.90
23562;DHT22;11959;49.418;8.728;2022-09-09T15:51:45;17.60;99.90
23562;DHT22;11959;49.418;8.728;2022-09-09T15:54:16;17.30;99.90
23562;DHT22;11959;49.418;8.728;2022-09-09T15:56:44;17.20;99.90
23562;DHT22;11959;49.418;8.728;2022-09-09T15:59:10;17.20;99.90
23562;DHT22;11959;49.418;8.728;2022-09-09T16:01:36;17.30;99.90
23562;DHT22;11959;49.418;8.728;2022-09-09T16:04:02;17.30;99.90
23562;DHT22;11959;49.418;8.728;2022-09-09T16:06:29;17.40;99.90
23562;DHT22;11959;49.418;8.728;2022-09-09T16:08:56;17.30;99.90
23562;DHT22;11959;49.418;8.728;2022-09-09T16:11:24;17.50;99.90
23562;DHT22;11959;49.418;8.728;2022-09-09T16:13:52;17.70;99.90
23562;DHT22;11959;49.418;8.728;2022-09-09T16:16:20;17.80;99.90
23562;DHT22;11959;49.418;8.728;2022-09-09T16:18:49;17.90;99.90
23562;DHT22;11959;49.418;8.728;2022-09-09T16:21:25;17.90;99.90
23562;DHT22;11959;49.418;8.728;2022-09-09T16:23:52;17.90;99.90
23562;DHT22;11959;49.418;8.728;2022-09-09T16:26:22;17.90;99.90
23562;DHT22;11959;49.418;8.728;2022-09-09T16:28:48;17.80;99.90
23562;DHT22;11959;49.418;8.728;2022-09-09T16:31:18;17.80;99.90
23562;DHT22;11959;49.418;8.728;2022-09-09T16:33:45;17.80;99.90
23562;DHT22;11959;49.418;8.728;2022-09-09T16:36:25;17.80;99.90
23562;DHT22;11959;49.418;8.728;2022-09-09T16:38:55;17.60;99.90
23562;DHT22;11959;49.418;8.728;2022-09-09T16:41:23;17.50;99.90
23562;DHT22;11959;49.418;8.728;2022-09-09T16:43:53;17.40;99.90
23562;DHT22;11959;49.418;8.728;2022-09-09T16:46:20;17.30;99.90
23562;DHT22;11959;49.418;8.728;2022-09-09T16:48:47;17.20;99.90
23562;DHT22;11959;49.418;8.728;2022-09-09T16:51:20;17.20;99.90
23562;DHT22;11959;49.418;8.728;2022-09-09T16:53:46;17.10;99.90
23562;DHT22;11959;49.418;8.728;2022-09-09T16:56:24;17.10;99.90
23562;DHT22;11959;49.418;8.728;2022-09-09T16:59:02;17.00;99.90
23562;DHT22;11959;49.418;8.728;2022-09-09T17:01:30;17.00;99.90
23562;DHT22;11959;49.418;8.728;2022-09-09T17:03:58;16.90;99.90
23562;DHT22;11959;49.418;8.728;2022-09-09T17:06:24;16.90;99.90
23562;DHT22;11959;49.418;8.728;2022-09-09T17:08:59;16.80;99.90
23562;DHT22;11959;49.418;8.728;2022-09-09T17:11:26;16.80;99.90
23562;DHT22;11959;49.418;8.728;2022-09-09T17:13:52;16.70;99.90
23562;DHT22;11959;49.418;8.728;2022-09-09T17:16:19;16.70;99.90
23562;DHT22;11959;49.418;8.728;2022-09-09T17:18:49;16.70;99.90
23562;DHT22;11959;49.418;8.728;2022-09-09T17:21:18;16.60;99.90
23562;DHT22;11959;49.418;8.728;2022-09-09T17:23:44;16.60;99.90
23562;DHT22;11959;49.418;8.728;2022-09-09T17:26:13;16.60;99.90
23562;DHT22;11959;49.418;8.728;2022-09-09T17:28:40;16.60;99.90
23562;DHT22;11959;49.418;8.728;2022-09-09T17:31:07;16.60;99.90
23562;DHT22;11959;49.418;8.728;2022-09-09T17:33:36;16.50;99.90
23562;DHT22;11959;49.418;8.728;2022-09-09T17:36:10;16.50;99.90
23562;DHT22;11959;49.418;8.728;2022-09-09T17:38:37;16.40;99.90
23562;DHT22;11959;49.418;8.728;2022-09-09T17:43:38;16.40;99.90
23562;DHT22;11959;49.418;8.728;2022-09-09T17:48:32;16.30;99.90
23562;DHT22;11959;49.418;8.728;2022-09-09T17:50:59;16.30;99.90
23562;DHT22;11959;49.418;8.728;2022-09-09T17:53:25;16.20;99.90
23562;DHT22;11959;49.418;8.728;2022-09-09T17:55:51;16.30;99.90
23562;DHT22;11959;49.418;8.728;2022-09-09T17:58:17;16.30;99.90
23562;DHT22;11959;49.418;8.728;2022-09-09T18:00:42;16.20;99.90
23562;DHT22;11959;49.418;8.728;2022-09-09T18:03:08;16.20;99.90